createdAt,value
2017-10-04T00:02:27.778Z,11.07
2017-10-04T00:05:05.850Z,11.30
2017-10-04T00:07:43.892Z,7.83
2017-10-04T00:10:19.341Z,8.97
2017-10-04T00:12:55.053Z,8.90
2017-10-04T00:15:37.729Z,12.37
2017-10-04T00:18:06.869Z,7.80
2017-10-04T00:20:51.234Z,9.07
2017-10-04T00:23:20.369Z,10.70
2017-10-04T00:25:57.385Z,7.03
2017-10-04T00:28:26.523Z,7.07
2017-10-04T00:30:59.182Z,9.50
2017-10-04T00:33:35.733Z,6.57
2017-10-04T00:36:04.864Z,13.43
2017-10-04T00:38:33.982Z,6.43
2017-10-04T00:41:03.125Z,7.97
2017-10-04T00:43:32.829Z,6.53
2017-10-04T00:46:02.101Z,9.80
2017-10-04T00:48:31.249Z,8.50
2017-10-04T00:51:00.395Z,10.80
2017-10-04T00:53:29.485Z,8.53
2017-10-04T00:56:04.684Z,8.63
2017-10-04T00:58:33.881Z,10.33
2017-10-04T01:01:03.022Z,6.93
2017-10-04T01:03:32.188Z,6.77
2017-10-04T01:06:01.328Z,7.07
2017-10-04T01:08:38.403Z,9.20
2017-10-04T01:11:07.586Z,10.03
2017-10-04T01:13:42.781Z,7.80
2017-10-04T01:16:12.392Z,8.20
2017-10-04T01:18:55.937Z,6.13
2017-10-04T01:21:31.158Z,7.50
2017-10-04T01:24:09.140Z,8.80
2017-10-04T01:26:38.873Z,6.43
2017-10-04T01:29:08.121Z,7.90
2017-10-04T01:31:37.424Z,5.87
2017-10-04T01:34:06.695Z,11.27
2017-10-04T01:36:36.728Z,7.87
2017-10-04T01:39:06.487Z,12.20
2017-10-04T01:41:35.730Z,10.80
2017-10-04T01:44:04.874Z,7.73
2017-10-04T01:46:47.754Z,8.53
2017-10-04T01:49:24.264Z,8.00
2017-10-04T01:51:53.705Z,7.83
2017-10-04T01:54:22.869Z,8.83
2017-10-04T01:57:04.133Z,10.27
2017-10-04T01:59:33.260Z,7.90
2017-10-04T02:02:02.377Z,5.90
2017-10-04T02:04:31.473Z,7.10
2017-10-04T02:07:00.776Z,6.03
2017-10-04T02:09:30.080Z,6.30
2017-10-04T02:12:11.250Z,8.20
2017-10-04T02:14:40.427Z,14.60
2017-10-04T02:17:11.041Z,7.10
2017-10-04T02:19:40.192Z,5.93
2017-10-04T02:22:09.318Z,7.23
2017-10-04T02:24:39.478Z,7.77
2017-10-04T02:27:08.594Z,9.83
2017-10-04T02:29:37.683Z,7.40
2017-10-04T02:32:07.013Z,7.97
2017-10-04T02:34:36.283Z,6.00
2017-10-04T02:37:07.085Z,7.13
2017-10-04T02:39:36.237Z,6.43
2017-10-04T02:42:05.492Z,6.10
2017-10-04T02:44:34.780Z,6.30
2017-10-04T02:47:16.247Z,6.20
2017-10-04T02:49:45.421Z,5.87
2017-10-04T02:52:14.519Z,12.77
2017-10-04T02:54:43.674Z,8.90
2017-10-04T02:57:12.914Z,8.30
2017-10-04T02:59:48.098Z,16.70
2017-10-04T03:02:17.231Z,10.77
2017-10-04T03:04:46.376Z,5.90
2017-10-04T03:07:23.596Z,7.70
2017-10-04T03:09:53.822Z,10.63
2017-10-04T03:12:23.184Z,6.10
2017-10-04T03:14:52.453Z,7.90
2017-10-04T03:17:30.874Z,10.40
2017-10-04T03:20:00.027Z,10.33
2017-10-04T03:22:29.626Z,7.87
2017-10-04T03:24:58.876Z,17.57
2017-10-04T03:27:28.207Z,27.20
2017-10-04T03:29:57.529Z,24.87
2017-10-04T03:32:43.203Z,38.80
2017-10-04T03:35:13.756Z,9.33
2017-10-04T03:37:42.923Z,20.90
2017-10-04T03:40:12.062Z,7.53
2017-10-04T03:42:41.831Z,42.27
2017-10-04T03:45:11.146Z,27.93
2017-10-04T03:47:42.118Z,9.80
2017-10-04T03:50:11.234Z,26.50
2017-10-04T03:52:40.569Z,17.50
2017-10-04T03:55:10.699Z,13.43
2017-10-04T03:57:40.093Z,29.10
2017-10-04T04:00:09.258Z,62.00
2017-10-04T04:02:38.699Z,23.07
2017-10-04T04:05:07.993Z,37.40
2017-10-04T04:07:49.478Z,34.43
2017-10-04T04:10:18.601Z,38.50
2017-10-04T04:12:55.626Z,53.73
2017-10-04T04:15:25.754Z,23.67
2017-10-04T04:17:54.920Z,33.20
2017-10-04T04:20:24.067Z,17.50
2017-10-04T04:23:07.126Z,28.63
2017-10-04T04:25:37.298Z,15.13
2017-10-04T04:28:06.470Z,15.50
2017-10-04T04:30:35.620Z,24.67
2017-10-04T04:33:04.757Z,35.43
2017-10-04T04:35:33.968Z,14.17
2017-10-04T04:38:21.210Z,15.20
2017-10-04T04:40:57.849Z,21.80
2017-10-04T04:43:27.110Z,34.20
2017-10-04T04:45:56.405Z,62.87
2017-10-04T04:48:38.312Z,41.30
2017-10-04T04:51:07.633Z,25.23
2017-10-04T04:53:36.845Z,31.67
2017-10-04T04:56:06.197Z,39.50
2017-10-04T04:58:35.479Z,28.10
2017-10-04T05:01:19.960Z,34.23
2017-10-04T05:03:49.136Z,34.70
2017-10-04T05:06:21.322Z,25.27
2017-10-04T05:08:50.465Z,38.43
2017-10-04T05:11:31.778Z,26.50
2017-10-04T05:14:01.152Z,27.13
2017-10-04T05:16:32.025Z,39.90
2017-10-04T05:19:01.193Z,54.70
2017-10-04T05:21:30.345Z,116.10
2017-10-04T05:23:59.536Z,80.80
2017-10-04T05:26:28.884Z,88.70
2017-10-04T05:28:58.070Z,55.57
2017-10-04T05:31:27.206Z,68.53
2017-10-04T05:34:08.643Z,44.77
2017-10-04T05:36:37.995Z,93.17
2017-10-04T05:39:07.096Z,128.77
2017-10-04T05:41:42.439Z,92.30
2017-10-04T05:44:12.059Z,70.20
2017-10-04T05:46:41.341Z,68.50
2017-10-04T05:49:10.512Z,95.97
2017-10-04T05:51:39.647Z,77.33
2017-10-04T05:54:09.529Z,96.33
2017-10-04T05:56:38.676Z,50.53
2017-10-04T05:59:08.664Z,100.17
2017-10-04T06:01:37.832Z,84.60
2017-10-04T06:04:13.323Z,88.90
2017-10-04T06:06:42.477Z,56.73
2017-10-04T06:09:11.637Z,57.30
2017-10-04T06:11:40.809Z,51.43
2017-10-04T06:14:09.955Z,76.87
2017-10-04T06:16:39.393Z,93.53
2017-10-04T06:19:08.534Z,42.67
2017-10-04T06:21:44.488Z,45.33
2017-10-04T06:24:14.281Z,42.00
2017-10-04T06:26:57.109Z,95.43
2017-10-04T06:29:26.253Z,37.10
2017-10-04T06:31:55.344Z,45.50
2017-10-04T06:34:24.501Z,47.33
2017-10-04T06:36:53.842Z,67.10
2017-10-04T06:39:30.666Z,46.60
2017-10-04T06:41:59.837Z,30.13
2017-10-04T06:44:35.019Z,46.97
2017-10-04T06:47:04.136Z,68.57
2017-10-04T06:49:33.285Z,65.73
2017-10-04T06:52:08.746Z,85.90
2017-10-04T06:54:39.339Z,69.47
2017-10-04T06:57:17.178Z,74.40
2017-10-04T06:59:46.318Z,45.90
2017-10-04T07:02:15.694Z,193.63
2017-10-04T07:04:44.853Z,141.23
2017-10-04T07:07:20.017Z,106.47
2017-10-04T07:09:49.188Z,53.77
2017-10-04T07:12:18.317Z,130.93
2017-10-04T07:14:47.528Z,56.13
2017-10-04T07:17:16.694Z,48.03
2017-10-04T07:19:46.362Z,64.23
2017-10-04T07:22:15.487Z,39.60
2017-10-04T07:24:44.582Z,24.70
2017-10-04T07:27:13.980Z,26.23
2017-10-04T07:29:43.130Z,29.37
2017-10-04T07:32:18.895Z,27.27
2017-10-04T07:34:48.054Z,12.17
2017-10-04T07:37:17.186Z,19.63
2017-10-04T07:39:46.381Z,12.40
2017-10-04T07:42:15.494Z,10.93
2017-10-04T07:44:44.585Z,15.83
2017-10-04T07:47:13.769Z,11.97
2017-10-04T07:49:45.254Z,17.70
2017-10-04T07:52:14.391Z,15.17
2017-10-04T07:54:43.538Z,13.63
2017-10-04T07:57:12.688Z,12.10
2017-10-04T07:59:41.782Z,9.70
2017-10-04T08:02:11.081Z,10.50
2017-10-04T08:04:57.037Z,12.30
2017-10-04T08:07:26.172Z,12.03
2017-10-04T08:09:56.727Z,11.43
2017-10-04T08:12:25.873Z,10.20
2017-10-04T08:14:55.046Z,13.10
2017-10-04T08:17:24.186Z,12.60
2017-10-04T08:19:53.333Z,11.63
2017-10-04T08:22:41.134Z,11.83
2017-10-04T08:25:16.802Z,20.50
2017-10-04T08:27:45.984Z,18.33
2017-10-04T08:30:28.763Z,20.53
2017-10-04T08:32:57.936Z,18.53
2017-10-04T08:35:27.039Z,24.17
2017-10-04T08:37:56.171Z,22.90
2017-10-04T08:40:25.298Z,15.80
2017-10-04T08:42:54.591Z,18.17
2017-10-04T08:45:23.952Z,26.73
2017-10-04T08:47:57.258Z,16.47
2017-10-04T08:50:26.400Z,21.43
2017-10-04T08:53:03.349Z,16.40
2017-10-04T08:55:32.512Z,20.63
2017-10-04T08:58:01.618Z,30.50
2017-10-04T09:00:30.754Z,22.73
2017-10-04T09:02:59.861Z,15.63
2017-10-04T09:05:41.957Z,17.70
2017-10-04T09:08:11.264Z,21.60
2017-10-04T09:10:40.360Z,18.77
2017-10-04T09:13:09.485Z,18.80
2017-10-04T09:15:53.616Z,17.73
2017-10-04T09:18:23.239Z,20.53
2017-10-04T09:20:52.359Z,15.53
2017-10-04T09:23:21.476Z,20.40
2017-10-04T09:25:58.320Z,16.67
2017-10-04T09:28:27.417Z,15.50
2017-10-04T09:31:09.882Z,15.53
2017-10-04T09:33:39.895Z,16.90
2017-10-04T09:36:09.331Z,26.93
2017-10-04T09:38:38.462Z,18.43
2017-10-04T09:41:07.608Z,23.33
2017-10-04T09:43:36.837Z,19.40
2017-10-04T09:46:05.942Z,17.67
2017-10-04T09:48:35.178Z,16.63
2017-10-04T09:51:04.378Z,26.77
2017-10-04T09:53:33.508Z,29.43
2017-10-04T09:56:02.606Z,59.57
2017-10-04T09:58:31.782Z,31.03
2017-10-04T10:01:00.961Z,18.10
2017-10-04T10:03:30.127Z,22.57
2017-10-04T10:06:06.813Z,25.40
2017-10-04T10:08:43.165Z,19.90
2017-10-04T10:11:19.707Z,22.07
2017-10-04T10:13:50.389Z,22.90
2017-10-04T10:16:28.773Z,23.73
2017-10-04T10:18:57.906Z,15.77
2017-10-04T10:21:27.092Z,29.67
2017-10-04T10:23:56.633Z,20.73
2017-10-04T10:26:25.988Z,14.57
2017-10-04T10:28:55.150Z,21.20
2017-10-04T10:31:24.281Z,23.63
2017-10-04T10:33:53.459Z,17.57
2017-10-04T10:36:22.609Z,19.47
2017-10-04T10:38:51.747Z,19.83
2017-10-04T10:41:20.894Z,20.43
2017-10-04T10:43:50.045Z,19.20
2017-10-04T10:46:19.260Z,11.60
2017-10-04T10:48:50.017Z,13.60
2017-10-04T10:51:26.730Z,16.27
2017-10-04T10:53:55.921Z,15.63
2017-10-04T10:56:25.833Z,19.00
2017-10-04T10:59:02.744Z,9.53
2017-10-04T11:01:31.899Z,11.30
2017-10-04T11:04:01.075Z,10.07
2017-10-04T11:06:30.228Z,21.80
2017-10-04T11:08:59.320Z,11.90
2017-10-04T11:11:29.013Z,36.63
2017-10-04T11:13:58.125Z,62.73
2017-10-04T11:16:27.258Z,24.73
2017-10-04T11:18:56.394Z,19.07
2017-10-04T11:21:25.534Z,9.43
2017-10-04T11:23:54.625Z,17.13
2017-10-04T11:26:30.896Z,9.40
2017-10-04T11:29:00.002Z,6.50
2017-10-04T11:31:29.146Z,12.50
2017-10-04T11:33:58.348Z,10.03
2017-10-04T11:36:27.656Z,7.83
2017-10-04T11:39:09.749Z,10.73
2017-10-04T11:41:38.921Z,6.10
2017-10-04T11:44:08.070Z,13.63
2017-10-04T11:46:37.238Z,9.07
2017-10-04T11:49:07.332Z,7.20
2017-10-04T11:51:36.677Z,10.90
2017-10-04T11:54:07.556Z,9.13
2017-10-04T11:56:37.525Z,17.27
2017-10-04T11:59:06.673Z,4.70
2017-10-04T12:01:39.317Z,7.63
2017-10-04T12:04:08.748Z,13.47
2017-10-04T12:06:45.564Z,15.43
2017-10-04T12:09:15.540Z,11.93
2017-10-04T12:11:44.874Z,13.70
2017-10-04T12:14:14.229Z,6.73
2017-10-04T12:16:43.343Z,4.80
2017-10-04T12:19:24.490Z,7.57
2017-10-04T12:21:53.820Z,9.98
2017-10-04T12:24:23.810Z,3.03
2017-10-04T12:27:00.646Z,5.12
2017-10-04T12:29:37.230Z,3.80
2017-10-04T12:32:06.357Z,7.45
2017-10-04T12:34:35.584Z,6.50
2017-10-04T12:37:12.589Z,4.30
2017-10-04T12:39:41.722Z,3.83
2017-10-04T12:42:10.909Z,4.03
2017-10-04T12:44:40.558Z,5.37
2017-10-04T12:47:09.682Z,7.30
2017-10-04T12:49:38.769Z,6.80
2017-10-04T12:52:07.935Z,5.87
2017-10-04T12:54:37.343Z,5.70
2017-10-04T12:57:06.843Z,4.47
2017-10-04T12:59:35.986Z,6.80
2017-10-04T13:02:05.082Z,12.20
2017-10-04T13:04:40.629Z,7.30
2017-10-04T13:07:09.998Z,10.80
2017-10-04T13:09:54.662Z,4.72
2017-10-04T13:12:31.710Z,4.47
2017-10-04T13:15:01.053Z,6.20
2017-10-04T13:17:30.206Z,4.25
2017-10-04T13:19:59.287Z,5.33
2017-10-04T13:22:29.076Z,4.62
2017-10-04T13:24:58.193Z,4.30
2017-10-04T13:27:27.309Z,3.28
2017-10-04T13:29:56.429Z,4.30
2017-10-04T13:32:26.605Z,7.10
2017-10-04T13:35:09.580Z,3.40
2017-10-04T13:37:38.687Z,4.03
2017-10-04T13:40:07.825Z,5.10
2017-10-04T13:42:36.920Z,3.93
2017-10-04T13:45:06.030Z,3.50
2017-10-04T13:47:36.850Z,4.68
2017-10-04T13:50:05.999Z,4.72
2017-10-04T13:52:36.052Z,3.35
2017-10-04T13:55:05.520Z,3.60
2017-10-04T13:57:34.846Z,4.12
2017-10-04T14:00:03.958Z,5.05
2017-10-04T14:02:33.069Z,3.70
2017-10-04T14:05:09.292Z,6.22
2017-10-04T14:07:38.797Z,5.60
2017-10-04T14:10:07.985Z,4.62
2017-10-04T14:12:37.244Z,5.53
2017-10-04T14:15:06.379Z,6.53
2017-10-04T14:17:35.518Z,5.85
2017-10-04T14:20:04.654Z,4.60
2017-10-04T14:22:33.741Z,9.02
2017-10-04T14:25:02.883Z,5.87
2017-10-04T14:27:32.255Z,2.92
2017-10-04T14:30:01.354Z,10.20
2017-10-04T14:32:33.937Z,4.45
2017-10-04T14:35:03.169Z,20.00
2017-10-04T14:37:32.317Z,4.65
2017-10-04T14:40:01.433Z,7.22
2017-10-04T14:42:30.525Z,3.03
2017-10-04T14:45:07.135Z,2.53
2017-10-04T14:47:37.136Z,2.30
2017-10-04T14:50:06.321Z,1.85
2017-10-04T14:52:35.677Z,4.12
2017-10-04T14:55:12.326Z,1.98
2017-10-04T14:57:54.822Z,2.45
2017-10-04T15:00:24.005Z,2.28
2017-10-04T15:02:53.133Z,3.28
2017-10-04T15:05:22.294Z,2.85
2017-10-04T15:07:51.727Z,7.25
2017-10-04T15:10:26.867Z,3.85
2017-10-04T15:12:56.023Z,4.37
2017-10-04T15:15:25.250Z,3.28
2017-10-04T15:17:54.368Z,2.50
2017-10-04T15:20:23.473Z,3.12
2017-10-04T15:22:53.449Z,3.62
2017-10-04T15:25:22.564Z,1.80
2017-10-04T15:27:51.821Z,2.33
2017-10-04T15:30:21.342Z,6.68
2017-10-04T15:32:50.459Z,9.25
2017-10-04T15:35:19.730Z,4.47
2017-10-04T15:37:48.839Z,2.95
2017-10-04T15:40:17.977Z,5.25
2017-10-04T15:42:47.117Z,2.05
2017-10-04T15:45:16.242Z,2.83
2017-10-04T15:47:45.519Z,2.62
2017-10-04T15:50:14.653Z,1.98
2017-10-04T15:52:43.987Z,4.03
2017-10-04T15:55:20.956Z,10.15
2017-10-04T15:57:50.686Z,25.87
2017-10-04T16:00:20.638Z,7.80
2017-10-04T16:02:52.155Z,9.43
2017-10-04T16:05:40.506Z,4.77
2017-10-04T16:08:09.630Z,2.83
2017-10-04T16:10:38.712Z,4.93
2017-10-04T16:13:08.049Z,5.00
2017-10-04T16:15:37.280Z,5.93
2017-10-04T16:18:06.947Z,3.10
2017-10-04T16:20:50.768Z,1.80
2017-10-04T16:23:19.945Z,1.87
2017-10-04T16:25:49.090Z,5.13
2017-10-04T16:28:31.636Z,10.13
2017-10-04T16:31:07.103Z,4.33
2017-10-04T16:33:36.289Z,6.13
2017-10-04T16:36:05.456Z,3.17
2017-10-04T16:38:43.948Z,6.60
2017-10-04T16:41:13.061Z,6.60
2017-10-04T16:43:42.316Z,5.23
2017-10-04T16:46:12.472Z,5.83
2017-10-04T16:48:41.619Z,3.70
2017-10-04T16:51:11.099Z,3.30
2017-10-04T16:53:40.204Z,3.13
2017-10-04T16:56:09.494Z,5.27
2017-10-04T16:58:51.794Z,3.20
2017-10-04T17:01:20.951Z,5.30
2017-10-04T17:03:50.049Z,4.73
2017-10-04T17:06:19.159Z,10.53
2017-10-04T17:09:01.049Z,3.43
2017-10-04T17:11:43.834Z,3.60
2017-10-04T17:14:16.842Z,10.30
2017-10-04T17:16:46.194Z,3.67
2017-10-04T17:19:16.440Z,2.97
2017-10-04T17:21:45.539Z,4.77
2017-10-04T17:24:19.738Z,4.53
2017-10-04T17:26:48.944Z,4.40
2017-10-04T17:29:18.073Z,3.20
2017-10-04T17:31:47.418Z,3.47
2017-10-04T17:34:16.603Z,3.07
2017-10-04T17:36:58.789Z,5.90
2017-10-04T17:39:27.905Z,5.50
2017-10-04T17:41:57.026Z,7.07
2017-10-04T17:44:26.143Z,3.13
2017-10-04T17:46:55.310Z,5.20
2017-10-04T17:49:24.426Z,4.33
2017-10-04T17:51:53.580Z,7.40
2017-10-04T17:54:22.734Z,4.57
2017-10-04T17:56:51.997Z,5.30
2017-10-04T17:59:35.312Z,4.43
2017-10-04T18:02:04.480Z,3.90
2017-10-04T18:04:34.360Z,4.87
2017-10-04T18:07:03.446Z,4.87
2017-10-04T18:09:33.417Z,8.70
2017-10-04T18:12:14.713Z,8.23
2017-10-04T18:14:44.094Z,5.30
2017-10-04T18:17:14.621Z,10.07
2017-10-04T18:19:43.929Z,5.73
2017-10-04T18:22:13.049Z,8.93
2017-10-04T18:24:48.149Z,6.60
2017-10-04T18:27:30.268Z,15.40
2017-10-04T18:30:07.838Z,5.63
2017-10-04T18:32:38.833Z,6.50
2017-10-04T18:35:08.216Z,8.50
2017-10-04T18:37:37.339Z,6.53
2017-10-04T18:40:20.103Z,8.07
2017-10-04T18:42:50.345Z,7.20
2017-10-04T18:45:19.628Z,10.43
2017-10-04T18:47:48.766Z,4.50
2017-10-04T18:50:17.964Z,6.43
2017-10-04T18:52:47.510Z,4.07
2017-10-04T18:55:16.675Z,7.57
2017-10-04T18:57:45.847Z,4.40
2017-10-04T19:00:15.380Z,5.97
2017-10-04T19:02:56.283Z,6.00
2017-10-04T19:05:25.515Z,10.20
2017-10-04T19:07:54.676Z,7.57
2017-10-04T19:10:23.779Z,6.60
2017-10-04T19:12:54.798Z,5.70
2017-10-04T19:15:26.031Z,5.53
2017-10-04T19:17:55.150Z,10.90
2017-10-04T19:20:24.249Z,5.57
2017-10-04T19:23:00.910Z,10.00
2017-10-04T19:25:37.192Z,7.03
2017-10-04T19:28:06.594Z,13.33
2017-10-04T19:30:35.721Z,5.93
2017-10-04T19:33:04.810Z,6.53
2017-10-04T19:35:33.964Z,5.27
2017-10-04T19:38:09.111Z,12.20
2017-10-04T19:40:38.253Z,4.63
2017-10-04T19:43:07.625Z,11.93
2017-10-04T19:45:42.887Z,5.43
2017-10-04T19:48:12.032Z,10.87
2017-10-04T19:50:41.146Z,10.60
2017-10-04T19:53:10.368Z,12.53
2017-10-04T19:55:40.001Z,6.87
2017-10-04T19:58:22.393Z,5.73
2017-10-04T20:00:51.501Z,13.40
2017-10-04T20:03:20.774Z,7.37
2017-10-04T20:05:57.461Z,14.83
2017-10-04T20:08:27.650Z,9.60
2017-10-04T20:10:56.807Z,4.30
2017-10-04T20:13:27.893Z,5.00
2017-10-04T20:16:05.651Z,6.10
2017-10-04T20:18:34.786Z,4.40
2017-10-04T20:21:04.013Z,4.10
2017-10-04T20:23:33.309Z,7.87
2017-10-04T20:26:08.832Z,4.80
2017-10-04T20:28:37.978Z,4.00
2017-10-04T20:31:07.120Z,4.40
2017-10-04T20:33:36.292Z,3.80
2017-10-04T20:36:06.596Z,3.30
2017-10-04T20:38:46.234Z,5.40
2017-10-04T20:41:15.641Z,5.80
2017-10-04T20:43:44.924Z,14.13
2017-10-04T20:46:14.254Z,4.37
2017-10-04T20:48:43.350Z,7.20
2017-10-04T20:51:13.514Z,8.30
2017-10-04T20:53:42.623Z,11.00
2017-10-04T20:56:12.362Z,6.30
2017-10-04T20:58:41.767Z,5.50
2017-10-04T21:01:10.906Z,6.47
2017-10-04T21:03:40.251Z,4.03
2017-10-04T21:06:10.370Z,8.80
2017-10-04T21:08:39.789Z,4.33
2017-10-04T21:11:22.041Z,8.60
2017-10-04T21:13:51.818Z,4.57
2017-10-04T21:16:29.165Z,7.77
2017-10-04T21:18:58.519Z,6.33
2017-10-04T21:21:44.499Z,4.30
2017-10-04T21:24:13.645Z,6.03
2017-10-04T21:26:42.943Z,5.27
2017-10-04T21:29:12.035Z,6.10
2017-10-04T21:31:53.387Z,7.33
2017-10-04T21:34:22.504Z,6.63
2017-10-04T21:36:51.618Z,5.33
2017-10-04T21:39:20.749Z,3.90
2017-10-04T21:41:49.847Z,6.90
2017-10-04T21:44:28.565Z,5.43
2017-10-04T21:47:03.708Z,4.77
2017-10-04T21:49:33.059Z,4.17
2017-10-04T21:52:02.291Z,7.20
2017-10-04T21:54:31.432Z,8.00
2017-10-04T21:57:00.562Z,6.27
2017-10-04T21:59:29.763Z,4.43
2017-10-04T22:01:58.917Z,5.57
2017-10-04T22:04:28.082Z,8.93
2017-10-04T22:06:57.321Z,7.20
2017-10-04T22:09:39.665Z,4.90
2017-10-04T22:12:08.794Z,6.10
2017-10-04T22:14:37.926Z,4.73
2017-10-04T22:17:07.065Z,4.87
2017-10-04T22:19:48.341Z,5.53
2017-10-04T22:22:17.459Z,4.10
2017-10-04T22:24:46.593Z,5.27
2017-10-04T22:27:15.682Z,7.40
2017-10-04T22:29:44.978Z,7.23
2017-10-04T22:32:26.423Z,7.60
2017-10-04T22:34:56.347Z,4.77
2017-10-04T22:37:25.787Z,11.90
2017-10-04T22:39:54.939Z,5.97
2017-10-04T22:42:24.772Z,5.47
2017-10-04T22:45:06.279Z,4.47
2017-10-04T22:47:35.586Z,5.43
2017-10-04T22:50:04.723Z,4.30
2017-10-04T22:52:33.841Z,5.13
2017-10-04T22:55:04.813Z,10.50
2017-10-04T22:57:33.960Z,5.67
2017-10-04T23:00:03.071Z,5.73
2017-10-04T23:02:39.941Z,6.03
2017-10-04T23:05:09.243Z,4.97
2017-10-04T23:07:38.394Z,12.20
2017-10-04T23:10:22.979Z,6.47
2017-10-04T23:13:04.851Z,4.93
2017-10-04T23:15:33.992Z,5.50
2017-10-04T23:18:03.090Z,6.80
2017-10-04T23:20:32.225Z,6.40
2017-10-04T23:23:01.355Z,6.93
2017-10-04T23:25:30.475Z,9.27
2017-10-04T23:28:13.375Z,11.73
2017-10-04T23:30:42.730Z,7.10
2017-10-04T23:33:11.878Z,7.10
2017-10-04T23:35:48.569Z,6.63
2017-10-04T23:38:17.858Z,5.70
2017-10-04T23:40:55.424Z,7.60
2017-10-04T23:43:24.557Z,6.60
2017-10-04T23:45:53.647Z,5.63
2017-10-04T23:48:22.974Z,6.63
2017-10-04T23:50:52.122Z,6.00
2017-10-04T23:53:21.247Z,8.67
2017-10-04T23:55:50.338Z,4.63
2017-10-04T23:58:19.488Z,4.40
